Time;durP1;ratioP1;P1;durP2;ratioP2;P2;SDS_P1;SDS_P2;PMS_P1;PMS_P2;Temp;Humidity;BMP_temperature;BMP_pressure;BME280_temperature;BME280_humidity;BME280_pressure;Samples;Min_cycle;Max_cycle;Signal;HPM_P1;HPM_P2
2022/07/21 00:01:46;;;;;;;19.15;11.45;;;;;;;;;;6156360;23;20442;-63
2022/07/21 00:04:12;;;;;;;18.92;11.25;;;;;;;;;;6155903;23;20021;-63
2022/07/21 00:06:38;;;;;;;21.27;12.75;;;;;;;;;;6156318;23;20049;-64
2022/07/21 00:09:04;;;;;;;17.70;11.68;;;;;;;;;;6156054;23;20021;-64
2022/07/21 00:11:30;;;;;;;18.25;10.68;;;;;;;;;;6155336;23;20434;-64
2022/07/21 00:13:58;;;;;;;23.20;11.68;;;;;;;;;;6155789;23;20017;-63
2022/07/21 00:16:24;;;;;;;20.70;13.45;;;;;;;;;;6156281;23;20049;-63
2022/07/21 00:18:50;;;;;;;21.10;13.35;;;;;;;;;;6155991;23;20018;-63
2022/07/21 00:21:16;;;;;;;24.17;13.35;;;;;;;;;;6155707;23;20485;-65
2022/07/21 00:23:42;;;;;;;22.90;14.60;;;;;;;;;;6155655;23;20053;-64
2022/07/21 00:26:08;;;;;;;19.70;13.80;;;;;;;;;;6129677;23;20021;-64
2022/07/21 00:28:34;;;;;;;23.02;14.25;;;;;;;;;;6156153;23;20014;-64
2022/07/21 00:31:00;;;;;;;27.52;15.48;;;;;;;;;;6155841;23;20028;-64
2022/07/21 00:33:26;;;;;;;24.55;15.23;;;;;;;;;;6156054;23;20014;-65
2022/07/21 00:35:52;;;;;;;21.42;15.32;;;;;;;;;;6155674;23;20064;-65
2022/07/21 00:38:18;;;;;;;24.75;15.77;;;;;;;;;;6128812;23;20024;-65
2022/07/21 00:40:44;;;;;;;22.02;15.02;;;;;;;;;;6155708;23;20025;-64
2022/07/21 00:43:10;;;;;;;25.02;14.93;;;;;;;;;;6155600;23;20323;-63
2022/07/21 00:45:37;;;;;;;21.63;15.27;;;;;;;;;;6155465;23;20017;-64
2022/07/21 00:48:03;;;;;;;23.65;15.63;;;;;;;;;;6156022;23;20562;-64
2022/07/21 00:50:30;;;;;;;21.25;16.23;;;;;;;;;;6155548;23;20010;-63
2022/07/21 00:52:56;;;;;;;24.73;15.90;;;;;;;;;;6155519;23;20025;-64
2022/07/21 00:55:22;;;;;;;22.70;16.73;;;;;;;;;;6155582;23;20013;-64
2022/07/21 00:57:49;;;;;;;23.50;16.42;;;;;;;;;;6155015;23;20017;-63
2022/07/21 01:00:26;;;;;;;24.45;16.88;;;;;;;;;;6155592;23;20014;-64
2022/07/21 01:02:52;;;;;;;26.63;17.75;;;;;;;;;;6155781;23;20013;-64
2022/07/21 01:05:19;;;;;;;21.85;17.45;;;;;;;;;;6155388;23;20052;-64
2022/07/21 01:07:49;;;;;;;28.83;20.58;;;;;;;;;;6155037;23;20013;-64
2022/07/21 01:10:16;;;;;;;31.38;20.02;;;20.40;99.90;;;;;;6155742;23;20068;-64
2022/07/21 01:12:42;;;;;;;25.98;18.13;;;;;;;;;;6154259;23;20074;-64
2022/07/21 01:15:09;;;;;;;27.55;18.02;;;;;;;;;;6155761;23;20009;-64
2022/07/21 01:17:35;;;;;;;26.98;19.48;;;;;;;;;;6155513;23;20020;-65
2022/07/21 01:20:06;;;;;;;25.75;18.08;;;;;;;;;;6155220;23;20089;-64
2022/07/21 01:22:33;;;;;;;27.50;18.38;;;;;;;;;;6155249;23;20024;-64
2022/07/21 01:24:59;;;;;;;30.65;20.60;;;;;;;;;;6155488;23;20049;-64
2022/07/21 01:27:28;;;;;;;31.70;20.27;;;;;;;;;;6155298;23;20010;-65
2022/07/21 01:29:55;;;;;;;31.23;20.95;;;;;;;;;;6129491;23;20013;-64
2022/07/21 01:32:21;;;;;;;26.27;18.67;;;;;;;;;;6155207;23;20111;-64
2022/07/21 01:34:47;;;;;;;29.88;21.27;;;;;;;;;;6154842;23;20021;-64
2022/07/21 01:37:13;;;;;;;31.02;21.15;;;;;;;;;;6154889;23;20102;-64
2022/07/21 01:42:24;;;;;;;33.42;20.90;;;;;;;;;;6155243;23;20018;-64
2022/07/21 01:44:51;;;;;;;28.88;19.05;;;;;;;;;;6155228;23;20051;-64
2022/07/21 01:47:17;;;;;;;24.70;17.40;;;;;;;;;;6155446;23;20345;-64
2022/07/21 01:49:44;;;;;;;31.17;21.60;;;;;;;;;;6155222;23;20017;-63
2022/07/21 01:52:10;;;;;;;34.08;24.85;;;;;;;;;;6154739;23;20395;-64
2022/07/21 01:54:36;;;;;;;26.42;20.85;;;;;;;;;;6154874;23;20400;-65
2022/07/21 01:57:02;;;;;;;34.78;25.42;;;;;;;;;;6154628;23;20025;-64
2022/07/21 01:59:28;;;;;;;40.40;27.73;;;;;;;;;;6155506;23;20009;-64
2022/07/21 02:01:54;;;;;;;41.80;28.20;;;;;;;;;;6154892;23;20093;-64
2022/07/21 02:04:20;;;;;;;42.25;29.38;;;;;;;;;;6155057;23;20017;-64
2022/07/21 02:06:46;;;;;;;43.08;31.17;;;;;;;;;;6154520;23;20422;-63
2022/07/21 02:09:12;;;;;;;40.30;29.73;;;;;;;;;;6155026;23;20018;-63
2022/07/21 02:11:38;;;;;;;39.30;29.48;;;;;;;;;;6154519;23;20373;-64
2022/07/21 02:14:05;;;;;;;45.08;31.40;;;;;;;;;;6155190;23;20080;-63
2022/07/21 02:16:31;;;;;;;39.63;29.85;;;;;;;;;;6154691;23;20026;-63
2022/07/21 02:18:57;;;;;;;40.00;30.45;;;;;;;;;;6154039;23;20017;-63
2022/07/21 02:21:23;;;;;;;39.00;30.05;;;;;;;;;;6154974;23;20017;-64
2022/07/21 02:23:49;;;;;;;36.25;28.65;;;;;;;;;;6155206;23;20014;-63
2022/07/21 02:26:15;;;;;;;40.75;30.52;;;;;;;;;;6154740;23;20085;-63
2022/07/21 02:28:41;;;;;;;36.15;27.50;;;;;;;;;;6154187;23;20076;-63
2022/07/21 02:31:07;;;;;;;39.38;27.95;;;;;;;;;;6154949;23;20524;-64
2022/07/21 02:33:33;;;;;;;34.83;28.38;;;;;;;;;;6154942;23;20017;-63
2022/07/21 02:36:00;;;;;;;34.50;26.65;;;;;;;;;;6154666;23;20057;-64
2022/07/21 02:38:26;;;;;;;33.97;26.95;;;;;;;;;;6154975;23;20013;-63
2022/07/21 02:40:52;;;;;;;37.88;28.17;;;;;;;;;;6154950;23;20017;-63
2022/07/21 02:43:18;;;;;;;34.08;27.27;;;;;;;;;;6154969;23;20041;-63
2022/07/21 02:45:44;;;;;;;33.42;25.27;;;;;;;;;;6154531;23;20295;-64
2022/07/21 02:48:11;;;;;;;31.95;24.65;;;;;;;;;;6154553;23;20014;-64
2022/07/21 02:50:39;;;;;;;33.75;27.08;;;;;;;;;;6154958;23;20391;-64
2022/07/21 02:53:06;;;;;;;32.95;25.05;;;;;;;;;;6155049;23;20070;-64
2022/07/21 02:55:33;;;;;;;22.50;19.83;;;;;;;;;;6154997;23;20013;-64
2022/07/21 02:58:10;;;;;;;27.00;21.00;;;;;;;;;;6154683;23;20018;-65
2022/07/21 03:00:40;;;;;;;27.92;22.52;;;;;;;;;;6155191;23;20013;-64
2022/07/21 03:03:06;;;;;;;23.20;19.35;;;;;;;;;;6154887;23;20014;-65
2022/07/21 03:05:33;;;;;;;22.58;19.15;;;;;;;;;;6155154;23;20045;-65
2022/07/21 03:07:59;;;;;;;22.23;18.60;;;;;;;;;;6130641;23;20329;-64
2022/07/21 03:10:25;;;;;;;23.75;17.10;;;;;;;;;;6156525;23;20021;-64
2022/07/21 03:12:52;;;;;;;21.70;17.42;;;;;;;;;;6156435;23;20020;-64
2022/07/21 03:15:18;;;;;;;19.58;15.73;;;;;;;;;;6156695;23;20020;-65
2022/07/21 03:17:44;;;;;;;20.77;16.45;;;;;;;;;;6155668;23;20453;-65
2022/07/21 03:20:10;;;;;;;23.25;16.77;;;;;;;;;;6155706;23;20021;-66
2022/07/21 03:22:36;;;;;;;21.70;16.55;;;;;;;;;;6156838;23;20296;-66
2022/07/21 03:25:05;;;;;;;20.48;15.90;;;;;;;;;;6155565;23;20319;-65
2022/07/21 03:27:31;;;;;;;20.58;15.13;;;;;;;;;;6156504;23;20092;-65
2022/07/21 03:29:57;;;;;;;19.75;15.25;;;;;;;;;;6130248;23;20017;-65
2022/07/21 03:32:23;;;;;;;17.85;13.95;;;;;;;;;;6156644;23;20016;-65
2022/07/21 03:34:49;;;;;;;20.75;15.38;;;;;;;;;;6156317;23;20045;-65
2022/07/21 03:37:15;;;;;;;16.75;14.73;;;;;;;;;;6156656;23;20013;-65
2022/07/21 03:39:41;;;;;;;20.83;15.77;;;;;;;;;;6179156;23;20329;-65
2022/07/21 03:42:07;;;;;;;21.35;16.05;;;;;;;;;;6156667;23;20025;-65
2022/07/21 03:44:33;;;;;;;19.88;16.65;;;;;;;;;;6155960;23;20017;-65
2022/07/21 03:46:59;;;;;;;20.35;16.20;;;;;;;;;;6155945;23;20036;-65
2022/07/21 03:49:25;;;;;;;21.27;15.98;;;;;;;;;;6156110;23;20024;-65
2022/07/21 03:51:51;;;;;;;19.15;15.85;;;;;;;;;;6156592;23;20044;-65
2022/07/21 03:54:17;;;;;;;19.70;15.82;;;;;;;;;;6155357;23;20446;-65
2022/07/21 03:56:43;;;;;;;20.40;15.90;;;;;;;;;;6156528;23;20013;-65
2022/07/21 03:59:09;;;;;;;19.92;15.68;;;;;;;;;;6156404;23;20013;-65
2022/07/21 04:01:35;;;;;;;20.80;15.38;;;;;;;;;;6179890;23;20435;-65
2022/07/21 04:04:01;;;;;;;22.02;15.45;;;;;;;;;;6156380;23;20088;-65
2022/07/21 04:06:27;;;;;;;18.75;14.93;;;;;;;;;;6154908;23;20029;-64
2022/07/21 04:08:53;;;;;;;18.67;14.43;;;;;;;;;;6155867;23;20064;-64
2022/07/21 04:11:19;;;;;;;19.00;16.02;;;;;;;;;;6156383;23;20140;-64
2022/07/21 04:13:45;;;;;;;19.80;16.25;;;;;;;;;;6156399;23;20057;-64
2022/07/21 04:16:11;;;;;;;21.83;17.25;;;;;;;;;;6155089;23;20444;-64
2022/07/21 04:18:37;;;;;;;20.92;17.02;;;;;;;;;;6156157;23;20023;-64
2022/07/21 04:21:03;;;;;;;23.55;17.42;;;;;;;;;;6156507;23;20018;-64
2022/07/21 04:23:31;;;;;;;19.92;16.63;;;;;;;;;;6155941;23;20013;-63
2022/07/21 04:25:57;;;;;;;22.35;17.80;;;;;;;;;;6154275;23;20214;-63
2022/07/21 04:28:23;;;;;;;24.55;17.27;;;;;;;;;;6155391;23;20017;-64
2022/07/21 04:30:49;;;;;;;22.08;18.67;;;;;;;;;;6155865;23;20013;-64
2022/07/21 04:33:15;;;;;;;24.85;19.38;;;;;;;;;;6156193;23;20017;-64
2022/07/21 04:35:41;;;;;;;26.52;20.80;;;;;;;;;;6155141;23;20017;-64
2022/07/21 04:38:11;;;;;;;23.05;18.33;;;;;;;;;;6156045;23;20076;-63
2022/07/21 04:40:38;;;;;;;23.60;19.65;;;;;;;;;;6155179;23;20461;-63
2022/07/21 04:43:04;;;;;;;28.13;21.73;;;;;;;;;;6155648;23;20025;-63
2022/07/21 04:45:32;;;;;;;21.85;18.88;;;;;;;;;;6155155;23;20021;-63
2022/07/21 04:47:58;;;;;;;23.65;19.88;;;;;;;;;;6155584;23;20013;-63
2022/07/21 04:50:25;;;;;;;27.13;20.20;;;;;;;;;;6155602;23;20064;-62
2022/07/21 04:52:52;;;;;;;24.00;19.40;;;;;;;;;;6155907;23;20013;-62
2022/07/21 04:55:19;;;;;;;26.08;19.63;;;;;;;;;;6154690;23;20020;-63
2022/07/21 04:57:47;;;;;;;23.77;19.70;;;;;;;;;;6155347;23;20334;-62
2022/07/21 05:00:15;;;;;;;25.75;20.75;;;;;;;;;;6155497;23;20075;-63
2022/07/21 05:02:43;;;;;;;28.80;22.63;;;;;;;;;;6155878;23;20028;-62
2022/07/21 05:05:10;;;;;;;23.25;20.50;;;;;;;;;;6154842;23;20728;-62
2022/07/21 05:07:36;;;;;;;28.75;21.33;;;;;;;;;;6155582;23;20014;-62
2022/07/21 05:10:09;;;;;;;29.88;22.60;;;;;;;;;;6155805;23;20021;-62
2022/07/21 05:12:38;;;;;;;28.67;22.30;;;;;;;;;;6155368;23;20049;-62
2022/07/21 05:15:05;;;;;;;28.73;23.10;;;;;;;;;;6153987;23;20798;-62
2022/07/21 05:17:31;;;;;;;30.05;23.65;;;;;;;;;;6155683;23;20017;-62
2022/07/21 05:19:57;;;;;;;27.77;23.63;;;;;;;;;;6155339;23;20049;-62
2022/07/21 05:22:23;;;;;;;32.03;25.08;;;;;;;;;;6155424;23;20096;-62
2022/07/21 05:24:49;;;;;;;29.13;23.63;;;;;;;;;;6155095;23;20091;-62
2022/07/21 05:27:15;;;;;;;32.13;24.33;;;;;;;;;;6176859;23;20022;-65
2022/07/21 05:29:41;;;;;;;28.10;24.00;;;;;;;;;;6129418;23;20018;-65
2022/07/21 05:32:07;;;;;;;25.88;21.65;;;;;;;;;;6155183;23;20505;-66
2022/07/21 05:34:33;;;;;;;28.00;21.77;;;;;;;;;;6155345;23;20140;-65
2022/07/21 05:36:59;;;;;;;26.33;22.55;;;;;;;;;;6154377;23;20430;-64
2022/07/21 05:39:25;;;;;;;26.70;20.58;;;;;;;;;;6155377;23;20017;-65
2022/07/21 05:41:51;;;;;;;24.30;19.98;;;;;;;;;;6154507;23;20025;-65
2022/07/21 05:44:17;;;;;;;25.33;20.77;;;;;;;;;;6127329;23;20072;-65
2022/07/21 05:46:43;;;;;;;26.67;21.17;;;;;;;;;;6128732;23;20018;-64
2022/07/21 05:49:10;;;;;;;22.88;19.08;;;;;;;;;;6152906;23;20108;-65
2022/07/21 05:51:36;;;;;;;25.65;19.52;;;;;;;;;;6154688;23;20017;-65
2022/07/21 05:54:02;;;;;;;24.48;18.85;;;;;;;;;;6177696;23;20021;-64
2022/07/21 05:56:28;;;;;;;22.05;18.27;;;;;;;;;;6153715;23;20017;-64
2022/07/21 05:58:54;;;;;;;21.45;18.27;;;;;;;;;;6155181;23;20018;-65
2022/07/21 06:01:20;;;;;;;26.70;19.15;;;;;;;;;;6129361;23;20138;-65
2022/07/21 06:03:48;;;;;;;21.45;18.15;;;;;;;;;;6128426;23;20422;-64
2022/07/21 06:06:16;;;;;;;22.55;19.60;;;;;;;;;;6153073;23;20093;-65
2022/07/21 06:08:42;;;;;;;21.98;18.95;;;;;;;;;;6178158;23;20025;-65
2022/07/21 06:11:09;;;;;;;23.05;18.40;;;;;;;;;;6154430;23;20013;-65
2022/07/21 06:13:35;;;;;;;22.60;18.73;;;;;;;;;;6176889;23;20450;-65
2022/07/21 06:16:02;;;;;;;22.20;18.90;;;;;;;;;;6128465;23;20426;-65
2022/07/21 06:18:28;;;;;;;24.35;19.40;;;;;;;;;;6154804;23;20435;-67
2022/07/21 06:20:54;;;;;;;27.30;20.45;;;;;;;;;;6150514;23;20107;-65
2022/07/21 06:23:20;;;;;;;23.42;18.75;;;;;;;;;;6178059;23;20018;-65
2022/07/21 06:25:46;;;;;;;24.08;19.65;;;;;;;;;;6175164;23;20092;-66
2022/07/21 06:28:12;;;;;;;22.60;18.63;;;;;;;;;;6177206;23;20084;-66
2022/07/21 06:30:38;;;;;;;24.13;18.65;;;21.80;99.90;;;;;;6153367;23;20024;-67
2022/07/21 06:33:04;;;;;;;24.27;19.23;;;;;;;;;;6153489;23;20009;-66
2022/07/21 06:35:30;;;;;;;24.27;20.48;;;21.90;99.90;;;;;;6178120;23;20422;-65
2022/07/21 06:37:56;;;;;;;25.77;21.70;;;;;;;;;;6153696;23;20450;-65
2022/07/21 06:40:22;;;;;;;24.05;20.25;;;;;;;;;;6179066;23;20053;-66
2022/07/21 06:42:48;;;;;;;27.48;20.83;;;;;;;;;;6156219;23;20021;-66
2022/07/21 06:45:15;;;;;;;26.60;21.25;;;;;;;;;;6180094;23;20319;-66
2022/07/21 06:50:13;;;;;;;32.17;23.08;;;;;;;;;;6265848;22;20091;-67
2022/07/21 06:52:39;;;;;;;32.03;25.10;;;;;;;;;;6276886;22;20019;-66
2022/07/21 06:55:06;;;;;;;29.77;23.17;;;;;;;;;;6224572;22;20042;-67
2022/07/21 06:57:33;;;;;;;29.75;23.77;;;;;;;;;;6249923;22;20027;-66
2022/07/21 06:59:59;;;;;;;33.25;24.70;;;;;;;;;;6250368;22;20026;-67
2022/07/21 07:02:25;;;;;;;32.47;24.48;;;;;;;;;;6250320;22;20051;-67
2022/07/21 07:04:51;;;;;;;35.45;24.83;;;;;;;;;;6277626;22;20302;-66
2022/07/21 07:07:17;;;;;;;30.67;22.77;;;;;;;;;;6224929;22;20057;-67
2022/07/21 07:09:43;;;;;;;32.45;23.55;;;;;;;;;;6249532;22;20583;-66
2022/07/21 07:12:10;;;;;;;33.63;26.13;;;;;;;;;;6276728;22;20046;-66
2022/07/21 07:14:36;;;;;;;30.88;25.05;;;;;;;;;;6224903;22;20069;-66
2022/07/21 07:17:03;;;;;;;36.28;26.50;;;;;;;;;;6250249;22;20024;-66
2022/07/21 07:19:30;;;;;;;36.78;28.55;;;;;;;;;;6277239;22;20015;-68
2022/07/21 07:21:56;;;;;;;39.05;30.70;;;;;;;;;;6277362;22;20027;-68
2022/07/21 07:24:22;;;;;;;44.35;31.33;;;;;;;;;;6276181;22;20011;-68
2022/07/21 07:26:48;;;;;;;44.65;30.95;;;;;;;;;;6276904;22;20124;-67
2022/07/21 07:29:15;;;;;;;43.75;32.67;;;;;;;;;;6250350;22;20026;-68
2022/07/21 07:31:41;;;;;;;39.90;32.60;;;;;;;;;;6224941;22;20024;-67
2022/07/21 07:34:07;;;;;;;42.50;32.80;;;;;;;;;;6277210;22;20015;-67
2022/07/21 07:36:34;;;;;;;46.08;33.45;;;;;;;;;;6277004;22;20024;-68
2022/07/21 07:39:01;;;;;;;46.47;34.88;;;;;;;;;;6275268;22;20027;-68
2022/07/21 07:41:28;;;;;;;44.03;34.22;;;;;;;;;;6276568;22;20024;-69
2022/07/21 07:43:55;;;;;;;48.95;35.22;;;;;;;;;;6250329;22;20022;-69
2022/07/21 07:46:21;;;;;;;47.33;34.72;;;;;;;;;;6276352;22;20026;-69
2022/07/21 07:48:47;;;;;;;43.85;34.67;;;;;;;;;;6276832;22;20019;-69
2022/07/21 07:51:14;;;;;;;44.92;35.03;;;;;;;;;;6249475;22;20019;-69
2022/07/21 07:53:40;;;;;;;45.30;33.90;;;;;;;;;;6277279;22;20090;-69
2022/07/21 07:56:07;;;;;;;47.30;35.72;;;;;;;;;;6275387;22;20019;-69
2022/07/21 07:58:33;;;;;;;42.42;35.03;;;;;;;;;;6249336;22;20031;-69
2022/07/21 08:01:00;;;;;;;46.90;35.15;;;;;;;;;;6276424;22;20027;-69
2022/07/21 08:03:26;;;;;;;49.35;37.60;;;;;;;;;;6248653;22;20325;-67
2022/07/21 08:05:53;;;;;;;50.05;35.58;;;;;;;;;;6275977;22;20432;-67
2022/07/21 08:08:19;;;;;;;50.10;36.58;;;;;;;;;;6249447;22;20090;-68
2022/07/21 08:10:46;;;;;;;51.95;38.40;;;;;;;;;;6276401;22;20352;-68
2022/07/21 08:13:13;;;;;;;47.97;36.58;;;;;;;;;;6249806;22;20012;-68
2022/07/21 08:15:39;;;;;;;50.80;39.15;;;;;;;;;;6276837;22;20016;-68
2022/07/21 08:18:06;;;;;;;54.38;37.88;;;;;;;;;;6224467;22;20094;-67
2022/07/21 08:20:33;;;;;;;50.10;38.20;;;;;;;;;;6276248;22;20019;-65
2022/07/21 08:22:59;;;;;;;50.95;38.88;;;;;;;;;;6276832;22;20088;-68
2022/07/21 08:25:25;;;;;;;45.72;35.03;;;;;;;;;;6249147;22;20016;-68
2022/07/21 08:27:51;;;;;;;56.38;40.25;;;;;;;;;;6276146;22;20015;-68
2022/07/21 08:30:17;;;;;;;51.50;39.72;;;;;;;;;;6249169;22;20024;-68
2022/07/21 08:32:43;;;;;;;50.17;40.20;;;;;;;;;;6276658;22;20020;-68
2022/07/21 08:35:10;;;;;;;54.38;35.88;;;;;;;;;;6276523;22;20456;-68
2022/07/21 08:37:36;;;;;;;56.22;39.08;;;;;;;;;;6276765;22;20318;-68
2022/07/21 08:40:04;;;;;;;54.45;40.42;;;;;;;;;;6249169;22;20022;-68
2022/07/21 08:42:30;;;;;;;60.67;41.40;;;;;;;;;;6249080;22;20138;-68
2022/07/21 08:44:56;;;;;;;59.00;38.70;;;;;;;;;;6275299;22;20066;-70
2022/07/21 08:47:23;;;;;;;61.65;44.58;;;;;;;;;;6275378;22;20080;-69
2022/07/21 08:49:49;;;;;;;61.15;41.60;;;;;;;;;;6264122;22;20391;-69
2022/07/21 08:52:15;;;;;;;60.20;42.17;;;;;;;;;;6249119;22;20027;-68
2022/07/21 08:54:41;;;;;;;50.92;38.63;;;;;;;;;;6276246;22;20020;-68
2022/07/21 08:57:07;;;;;;;57.42;39.22;;;;;;;;;;6275230;22;20023;-68
2022/07/21 08:59:33;;;;;;;57.15;40.65;;;;;;;;;;6273932;22;20450;-69
2022/07/21 09:01:59;;;;;;;59.63;40.90;;;;;;;;;;6248686;22;20024;-69
2022/07/21 09:04:25;;;;;;;55.95;39.47;;;;;;;;;;6274562;22;20058;-69
2022/07/21 09:06:59;;;;;;;56.97;39.40;;;;;;;;;;6248831;22;20030;-68
2022/07/21 09:09:26;;;;;;;57.15;40.53;;;;;;;;;;6274548;22;20020;-69
2022/07/21 09:11:52;;;;;;;54.95;38.75;;;;;;;;;;6276466;22;20020;-69
2022/07/21 09:14:21;;;;;;;55.08;39.17;;;;;;;;;;6249023;22;20330;-68
2022/07/21 09:16:49;;;;;;;55.78;39.92;;;;;;;;;;6274185;22;20019;-68
2022/07/21 09:19:17;;;;;;;55.25;39.20;;;;;;;;;;6274774;22;20019;-68
2022/07/21 09:21:43;;;;;;;52.65;38.78;;;;;;;;;;6276036;22;20030;-69
2022/07/21 09:24:17;;;;;;;54.17;39.63;;;;;;;;;;6275486;22;20094;-62
2022/07/21 09:27:02;;;;;;;52.78;39.15;;;20.60;99.90;;;;;;6247977;22;20030;-65
2022/07/21 09:29:33;;;;;;;53.85;37.60;;;;;;;;;;6248635;22;20073;-65
2022/07/21 09:32:11;;;;;;;53.13;40.13;;;;;;;;;;6274256;22;20441;-66
2022/07/21 09:34:37;;;;;;;51.63;37.03;;;;;;;;;;6275979;22;20023;-65
2022/07/21 09:37:05;;;;;;;61.70;36.88;;;;;;;;;;6275454;22;20015;-66
2022/07/21 09:40:03;;;;;;;51.58;37.88;;;;;;;;;;6274929;22;20503;-65
2022/07/21 09:42:31;;;;;;;49.85;37.67;;;;;;;;;;6245698;22;20027;-65
2022/07/21 09:45:06;;;;;;;49.10;36.83;;;21.20;99.90;;;;;;6275425;22;20019;-65
2022/07/21 09:47:33;;;;;;;52.80;35.60;;;;;;;;;;6275400;22;20023;-66
2022/07/21 09:49:59;;;;;;;42.88;32.97;;;;;;;;;;6273927;22;20089;-66
2022/07/21 09:52:25;;;;;;;44.22;32.22;;;;;;;;;;6275042;22;20027;-64
2022/07/21 09:54:52;;;;;;;51.33;33.88;;;;;;;;;;6273564;22;20018;-65
2022/07/21 09:57:19;;;;;;;41.70;33.53;;;;;;;;;;6275385;22;20019;-64
2022/07/21 09:59:45;;;;;;;42.20;32.22;;;;;;;;;;6275401;22;20317;-64
2022/07/21 10:02:15;;;;;;;41.55;32.95;;;;;;;;;;6273960;22;20020;-65
2022/07/21 10:04:41;;;;;;;;;;;21.30;99.90;;;;;;6276613;22;20011;-65
2022/07/21 10:07:07;;;;;;;43.92;32.05;;;;;;;;;;6275548;22;19919;-65
2022/07/21 10:09:33;;;;;;;43.40;32.38;;;;;;;;;;6275579;22;20050;-64
2022/07/21 10:12:00;;;;;;;41.35;31.52;;;;;;;;;;6275348;22;20058;-64
2022/07/21 10:14:26;;;;;;;47.58;34.03;;;;;;;;;;6249369;22;20444;-64
2022/07/21 10:16:52;;;;;;;44.80;33.15;;;;;;;;;;6278146;22;20022;-64
2022/07/21 10:19:29;;;;;;;43.60;32.55;;;;;;;;;;6276415;22;20023;-64
2022/07/21 10:22:10;;;;;;;39.63;32.10;;;;;;;;;;6275901;22;20016;-64
2022/07/21 10:24:37;;;;;;;39.15;31.98;;;;;;;;;;6276391;22;20016;-64
2022/07/21 10:27:07;;;;;;;46.97;33.15;;;;;;;;;;6275884;22;20444;-64
2022/07/21 10:29:48;;;;;;;40.90;32.47;;;;;;;;;;6276851;22;20325;-64
2022/07/21 10:32:18;;;;;;;45.88;33.33;;;;;;;;;;6277503;22;20436;-64
2022/07/21 10:34:44;;;;;;;45.92;34.45;;;;;;;;;;6277304;22;20020;-64
2022/07/21 10:37:11;;;;;;;44.70;35.97;;;;;;;;;;6278094;22;20020;-64
2022/07/21 10:39:39;;;;;;;44.42;34.42;;;;;;;;;;6277758;22;20015;-64
2022/07/21 10:42:17;;;;;;;48.47;37.22;;;;;;;;;;6277276;22;20019;-64
2022/07/21 10:44:46;;;;;;;44.90;34.53;;;;;;;;;;6277636;22;20016;-64
2022/07/21 10:47:19;;;;;;;43.47;35.25;;;;;;;;;;6277969;22;20022;-64
2022/07/21 10:49:45;;;;;;;46.45;35.53;;;;;;;;;;6276007;22;20384;-64
2022/07/21 10:52:39;;;;;;;46.90;35.22;;;21.30;99.90;;;;;;6277476;22;20019;-65
2022/07/21 10:55:08;;;;;;;52.90;37.90;;;;;;;;;;6275240;22;20453;-64
2022/07/21 10:57:34;;;;;;;63.28;39.45;;;;;;;;;;6277676;22;20023;-64
2022/07/21 11:00:19;;;;;;;58.25;39.35;;;;;;;;;;6277493;22;20055;-63
2022/07/21 11:02:49;;;;;;;45.00;34.20;;;;;;;;;;6277660;22;20081;-64
2022/07/21 11:05:15;;;;;;;;;;;;;;;;;;6277727;22;20020;-64
2022/07/21 11:08:00;;;;;;;50.78;36.05;;;;;;;;;;6274579;22;19915;-64
2022/07/21 11:10:26;;;;;;;45.35;33.88;;;;;;;;;;6277296;22;20098;-63
2022/07/21 11:12:55;;;;;;;45.15;34.65;;;;;;;;;;6277120;22;20016;-63
2022/07/21 11:15:43;;;;;;;46.92;33.67;;;20.90;99.90;;;;;;6275310;22;20023;-63
2022/07/21 11:18:09;;;;;;;46.63;34.50;;;;;;;;;;6275513;22;20118;-63
2022/07/21 11:20:35;;;;;;;47.58;34.80;;;;;;;;;;6276749;22;20024;-63
2022/07/21 11:23:04;;;;;;;34.00;22.98;;;;;;;;;;6276621;22;20020;-63
2022/07/21 11:25:30;;;;;;;30.27;22.50;;;;;;;;;;6274816;22;20015;-63
2022/07/21 11:27:56;;;;;;;30.25;23.27;;;;;;;;;;6273921;22;20031;-63
2022/07/21 11:30:22;;;;;;;33.17;24.95;;;;;;;;;;6273913;22;20016;-63
2022/07/21 11:32:48;;;;;;;32.75;23.10;;;;;;;;;;6276723;22;20031;-63
2022/07/21 11:35:15;;;;;;;20.80;17.42;;;;;;;;;;6276774;22;20022;-63
2022/07/21 11:37:42;;;;;;;16.23;13.85;;;;;;;;;;6276727;22;20149;-63
2022/07/21 11:40:11;;;;;;;16.85;12.95;;;;;;;;;;6276674;22;20019;-63
2022/07/21 11:42:37;;;;;;;16.93;15.00;;;;;;;;;;6273778;22;20487;-64
2022/07/21 11:45:04;;;;;;;14.43;12.93;;;;;;;;;;6275916;22;20025;-64
2022/07/21 11:47:30;;;;;;;14.30;12.80;;;;;;;;;;6276267;22;20020;-64
2022/07/21 11:49:57;;;;;;;15.75;13.85;;;;;;;;;;6274881;22;20019;-64
2022/07/21 11:52:28;;;;;;;15.20;13.15;;;;;;;;;;6276879;22;20185;-64
2022/07/21 11:54:54;;;;;;;;;;;21.20;99.90;;;;;;6276346;22;20012;-64
2022/07/21 11:57:21;;;;;;;15.38;12.95;;;;;;;;;;6276578;22;19919;-64
2022/07/21 11:59:48;;;;;;;14.90;13.32;;;;;;;;;;6274888;22;20020;-64
2022/07/21 12:02:14;;;;;;;16.70;12.77;;;;;;;;;;6275357;22;20085;-64
2022/07/21 12:04:47;;;;;;;16.50;12.48;;;;;;;;;;6276200;22;20024;-64
2022/07/21 12:07:25;;;;;;;14.52;12.65;;;;;;;;;;6276512;22;20479;-64
2022/07/21 12:09:53;;;;;;;15.50;13.30;;;;;;;;;;6276100;22;20011;-64
2022/07/21 12:12:36;;;;;;;17.10;14.40;;;;;;;;;;6276653;22;20072;-65
2022/07/21 12:15:11;;;;;;;17.85;14.57;;;;;;;;;;6275403;22;20065;-65
2022/07/21 12:17:39;;;;;;;17.88;15.98;;;;;;;;;;6275764;22;20020;-64
2022/07/21 12:20:05;;;;;;;23.17;20.38;;;;;;;;;;6276165;22;20016;-64
2022/07/21 12:22:35;;;;;;;22.67;17.45;;;;;;;;;;6276015;22;20452;-63
2022/07/21 12:25:02;;;;;;;21.17;16.80;;;;;;;;;;6275919;22;20095;-63
2022/07/21 12:27:28;;;;;;;20.05;16.30;;;;;;;;;;6276614;22;20087;-63
2022/07/21 12:29:54;;;;;;;17.83;16.00;;;;;;;;;;6274847;22;20011;-62
2022/07/21 12:32:40;;;;;;;16.45;14.15;;;;;;;;;;6275708;22;20452;-62
2022/07/21 12:35:06;;;;;;;16.65;13.85;;;;;;;;;;6276709;22;20011;-62
2022/07/21 12:37:51;;;;;;;15.90;12.63;;;;;;;;;;6276025;22;20046;-63
2022/07/21 12:40:19;;;;;;;14.35;12.35;;;;;;;;;;6276615;22;20055;-63
2022/07/21 12:42:45;;;;;;;15.35;12.40;;;;;;;;;;6275577;22;20025;-63
2022/07/21 12:45:15;;;;;;;14.27;10.70;;;;;;;;;;6249551;22;20011;-63
2022/07/21 12:47:41;;;;;;;12.80;10.82;;;;;;;;;;6275245;22;20023;-63
2022/07/21 12:50:08;;;;;;;12.43;10.88;;;;;;;;;;6276036;22;20015;-62
2022/07/21 12:52:34;;;;;;;12.85;10.77;;;;;;;;;;6275629;22;20027;-63
2022/07/21 12:55:00;;;;;;;12.93;10.70;;;;;;;;;;6272026;22;20019;-63
2022/07/21 12:57:28;;;;;;;13.90;12.05;;;;;;;;;;6275493;22;20038;-63
2022/07/21 12:59:54;;;;;;;13.07;10.82;;;;;;;;;;6275648;22;20475;-63
2022/07/21 13:02:20;;;;;;;16.73;12.68;;;;;;;;;;6276019;22;20023;-63
2022/07/21 13:04:46;;;;;;;13.50;11.95;;;;;;;;;;6275135;22;20022;-63
2022/07/21 13:07:12;;;;;;;14.82;13.25;;;;;;;;;;6275800;22;20008;-63
2022/07/21 13:09:38;;;;;;;13.85;12.13;;;;;;;;;;6276216;22;20464;-63
2022/07/21 13:12:05;;;;;;;14.10;11.80;;;;;;;;;;6276273;22;20031;-63
2022/07/21 13:14:31;;;;;;;14.57;12.50;;;;;;;;;;6276415;22;20073;-63
2022/07/21 13:16:57;;;;;;;17.38;12.07;;;;;;;;;;6248669;22;20050;-63
2022/07/21 13:19:24;;;;;;;15.18;12.32;;;;;;;;;;6275931;22;20058;-63
2022/07/21 13:21:51;;;;;;;17.17;12.57;;;;;;;;;;6275774;22;20463;-63
2022/07/21 13:24:17;;;;;;;15.32;12.65;;;;;;;;;;6223358;22;20019;-63
2022/07/21 13:26:43;;;;;;;13.35;11.95;;;;;;;;;;6275322;22;20515;-63
2022/07/21 13:29:09;;;;;;;17.33;12.32;;;;;;;;;;6275851;22;20444;-63
2022/07/21 13:31:38;;;;;;;16.13;13.18;;;;;;;;;;6275807;22;20485;-63
2022/07/21 13:34:07;;;;;;;15.15;12.68;;;;;;;;;;6275528;22;20381;-63
2022/07/21 13:36:34;;;;;;;14.55;12.07;;;;;;;;;;6275841;22;20023;-63
2022/07/21 13:39:00;;;;;;;14.68;12.20;;;;;;;;;;6275688;22;20098;-63
2022/07/21 13:41:26;;;;;;;20.67;12.35;;;;;;;;;;6275814;22;20031;-63
2022/07/21 13:43:53;;;;;;;15.30;11.60;;;;;;;;;;6275988;22;20494;-63
2022/07/21 13:46:19;;;;;;;19.08;12.70;;;;;;;;;;6275968;22;20069;-63
2022/07/21 13:48:45;;;;;;;15.38;11.48;;;;;;;;;;6250592;22;20039;-63
2022/07/21 13:51:15;;;;;;;14.20;11.18;;;;;;;;;;6275298;22;20019;-64
2022/07/21 13:53:42;;;;;;;14.48;11.40;;;;;;;;;;6275689;22;20020;-64
2022/07/21 13:56:08;;;;;;;16.80;11.40;;;;;;;;;;6275327;22;20011;-64
2022/07/21 13:58:34;;;;;;;13.77;11.10;;;;;;;;;;6274140;22;20016;-64
2022/07/21 14:01:00;;;;;;;16.00;11.68;;;;;;;;;;6276085;22;20024;-64
2022/07/21 14:03:26;;;;;;;14.23;11.57;;;;;;;;;;6275307;22;20019;-64
2022/07/21 14:05:52;;;;;;;16.05;12.13;;;;;;;;;;6274964;22;20022;-64
2022/07/21 14:08:18;;;;;;;15.02;11.15;;;;;;;;;;6274465;22;20459;-64
2022/07/21 14:10:44;;;;;;;15.48;12.00;;;;;;;;;;6273991;22;20024;-63
2022/07/21 14:13:11;;;;;;;15.38;12.60;;;;;;;;;;6275384;22;20064;-64
2022/07/21 14:15:37;;;;;;;11.68;10.30;;;;;;;;;;6274271;22;20026;-64
2022/07/21 14:18:03;;;;;;;14.95;11.65;;;;;;;;;;6275896;22;20015;-64
2022/07/21 14:20:29;;;;;;;12.10;10.85;;;;;;;;;;6275405;22;20020;-63